createdAt,value
2019-03-17T00:09:12.111Z,10.2
2019-03-17T00:20:15.637Z,10.3
2019-03-17T00:31:22.874Z,10.3
2019-03-17T00:41:38.734Z,10.2
2019-03-17T00:52:45.167Z,10.1
2019-03-17T01:03:47.018Z,10.1
2019-03-17T01:14:40.709Z,10.0
2019-03-17T01:25:32.204Z,10.0
2019-03-17T01:36:19.894Z,9.9
2019-03-17T01:47:23.342Z,10.0
2019-03-17T01:57:54.994Z,9.9
2019-03-17T02:08:47.099Z,10.0
2019-03-17T02:19:39.336Z,10.0
2019-03-17T02:29:57.712Z,10.0
2019-03-17T02:40:53.780Z,9.9
2019-03-17T02:51:48.092Z,10.0
2019-03-17T03:02:36.867Z,10.0
2019-03-17T03:13:28.835Z,10.0
2019-03-17T03:24:08.320Z,10.0
2019-03-17T03:34:35.873Z,9.9
2019-03-17T03:45:40.157Z,9.9
2019-03-17T03:56:42.552Z,9.9
2019-03-17T04:07:32.606Z,9.8
2019-03-17T04:17:50.205Z,9.8
2019-03-17T04:29:21.542Z,9.7
2019-03-17T04:40:23.282Z,9.5
2019-03-17T04:50:42.322Z,9.5
2019-03-17T05:02:07.585Z,9.2
2019-03-17T05:12:24.408Z,9.2
2019-03-17T05:22:55.795Z,9.1
2019-03-17T05:33:48.478Z,8.9
2019-03-17T05:44:37.694Z,8.8
2019-03-17T05:55:36.030Z,8.8
2019-03-17T06:06:39.084Z,8.7
2019-03-17T06:18:30.517Z,8.6
2019-03-17T06:28:48.591Z,8.6
2019-03-17T06:39:19.304Z,8.6
2019-03-17T06:49:33.292Z,8.5
2019-03-17T07:07:23.761Z,8.3
2019-03-17T07:17:40.984Z,8.3
2019-03-17T07:27:57.811Z,8.2
2019-03-17T07:45:06.761Z,7.8
2019-03-17T07:55:21.539Z,7.8
2019-03-17T08:06:17.664Z,7.6
2019-03-17T08:16:36.565Z,7.6
2019-03-17T08:26:56.885Z,7.5
2019-03-17T08:37:52.584Z,7.3
2019-03-17T08:48:11.303Z,7.4
2019-03-17T08:59:22.789Z,7.4
2019-03-17T09:10:34.373Z,7.5
2019-03-17T09:21:29.677Z,7.7
2019-03-17T09:31:45.438Z,7.7
2019-03-17T09:42:33.363Z,8.2
2019-03-17T09:53:23.859Z,8.3
2019-03-17T10:03:49.013Z,8.3
2019-03-17T10:14:52.866Z,8.4
2019-03-17T10:25:09.475Z,8.4
2019-03-17T10:35:59.426Z,9.0
2019-03-17T10:46:48.378Z,10.4
2019-03-17T10:58:28.587Z,12.2
2019-03-17T11:09:24.739Z,13.3
2019-03-17T11:19:41.855Z,13.2
2019-03-17T11:31:32.831Z,13.5
2019-03-17T11:42:20.219Z,13.9
2019-03-17T11:53:09.879Z,13.9
2019-03-17T12:03:37.040Z,13.9
2019-03-17T12:15:29.866Z,15.7
2019-03-17T12:25:51.251Z,15.7
2019-03-17T12:36:43.596Z,15.8
2019-03-17T12:46:57.732Z,15.8
2019-03-17T12:57:23.479Z,15.4
2019-03-17T13:08:17.397Z,14.4
2019-03-17T13:18:34.457Z,14.4
2019-03-17T13:29:01.534Z,13.8
2019-03-17T13:39:17.996Z,13.5
2019-03-17T13:50:13.739Z,13.4
2019-03-17T14:01:01.769Z,13.1
2019-03-17T14:11:49.659Z,13.0
2019-03-17T14:22:37.275Z,13.1
2019-03-17T14:33:33.225Z,13.4
2019-03-17T14:44:28.710Z,13.8
2019-03-17T14:56:24.670Z,14.2
2019-03-17T15:06:41.723Z,14.2
2019-03-17T15:17:08.760Z,14.6
2019-03-17T15:30:01.753Z,14.3
2019-03-17T15:40:16.562Z,14.3
2019-03-17T15:51:19.638Z,13.9
2019-03-17T16:02:09.619Z,13.5
2019-03-17T16:13:04.435Z,13.0
2019-03-17T16:23:59.339Z,12.5
2019-03-17T16:34:52.303Z,12.0
2019-03-17T16:45:49.206Z,11.5
2019-03-17T16:58:53.978Z,11.0
2019-03-17T17:10:03.779Z,10.6
2019-03-17T17:21:03.273Z,10.1
2019-03-17T17:34:05.759Z,9.7
2019-03-17T17:44:58.993Z,9.3
2019-03-17T18:00:56.724Z,8.9
2019-03-17T18:11:56.426Z,8.5
2019-03-17T18:25:16.734Z,8.0
2019-03-17T18:37:50.743Z,7.7
2019-03-17T18:48:56.085Z,7.4
2019-03-17T18:59:19.678Z,7.4
2019-03-17T19:26:08.553Z,6.6
2019-03-17T19:36:31.400Z,6.7
2019-03-17T19:46:57.166Z,6.4
2019-03-17T19:57:51.320Z,6.0
2019-03-17T20:09:09.781Z,5.8
2019-03-17T20:35:37.159Z,6.2
2019-03-17T20:47:09.040Z,5.9
2019-03-17T20:58:14.762Z,5.4
2019-03-17T21:09:28.108Z,5.2
2019-03-17T21:20:24.967Z,5.0
2019-03-17T21:31:12.123Z,4.8
2019-03-17T21:41:49.812Z,4.9
2019-03-17T21:52:39.024Z,4.6
2019-03-17T22:08:51.347Z,4.6
2019-03-17T22:19:07.675Z,4.6
2019-03-17T22:30:00.341Z,4.3
2019-03-17T22:40:20.785Z,4.3
2019-03-17T22:51:18.315Z,4.0
2019-03-17T23:01:32.147Z,4.0
2019-03-17T23:12:20.643Z,3.8
2019-03-17T23:22:41.572Z,3.8
2019-03-17T23:32:58.909Z,3.7
2019-03-17T23:43:54.196Z,3.6
2019-03-17T23:54:48.482Z,3.6
